Time;durP1;ratioP1;P1;durP2;ratioP2;P2;SDS_P1;SDS_P2;PMS_P1;PMS_P2;Temp;Humidity;BMP_temperature;BMP_pressure;BME280_temperature;BME280_humidity;BME280_pressure;Samples;Min_cycle;Max_cycle;Signal;HPM_P1;HPM_P2
2022/01/17 00:02:40;;;;;;;8.75;4.55;;;11.60;62.10;;;;;;20655487;28;20093;-79
2022/01/17 00:12:44;;;;;;;7.63;4.25;;;11.60;62.00;;;;;;20654948;28;20065;-79
2022/01/17 00:22:47;;;;;;;8.15;3.42;;;11.60;62.10;;;;;;20640030;28;20110;-79
2022/01/17 00:32:48;;;;;;;5.82;3.45;;;11.50;62.10;;;;;;20654505;28;20437;-80
2022/01/17 00:42:48;;;;;;;6.78;3.80;;;11.50;62.30;;;;;;20652915;28;20092;-79
2022/01/17 00:52:49;;;;;;;8.65;2.88;;;11.50;62.30;;;;;;20636561;28;20038;-79
2022/01/17 01:02:49;;;;;;;7.83;2.90;;;11.50;62.40;;;;;;20635839;28;20041;-79
2022/01/17 01:12:50;;;;;;;5.57;1.60;;;11.50;62.50;;;;;;20635312;28;20813;-79
2022/01/17 01:33:11;;;;;;;5.60;1.95;;;11.40;62.10;;;;;;20635705;28;20065;-79
2022/01/17 01:43:11;;;;;;;1.98;1.02;;;11.50;62.00;;;;;;20634019;28;20085;-79
2022/01/17 01:53:12;;;;;;;3.40;1.15;;;11.40;61.70;;;;;;20633439;28;20030;-79
2022/01/17 02:03:12;;;;;;;2.13;0.90;;;11.50;61.60;;;;;;20632293;28;20606;-81
2022/01/17 02:13:13;;;;;;;5.75;0.93;;;11.40;61.50;;;;;;20632749;28;20396;-79
2022/01/17 02:23:15;;;;;;;3.67;0.93;;;11.40;61.40;;;;;;20647868;28;20027;-79
2022/01/17 02:33:15;;;;;;;2.78;0.95;;;11.40;61.40;;;;;;20631108;28;20285;-80
2022/01/17 02:43:18;;;;;;;7.80;1.52;;;11.40;61.20;;;;;;20631289;28;20057;-79
2022/01/17 02:53:18;;;;;;;4.60;0.93;;;11.40;61.00;;;;;;20653157;28;20369;-79
2022/01/17 03:03:21;;;;;;;4.03;0.80;;;11.40;61.10;;;;;;20645503;28;20100;-77
2022/01/17 03:13:25;;;;;;;3.33;0.88;;;11.40;60.60;;;;;;20661041;28;20040;-77
2022/01/17 03:23:25;;;;;;;5.95;0.80;;;11.30;60.40;;;;;;20659230;28;20516;-76
2022/01/17 03:33:26;;;;;;;3.63;1.17;;;11.30;60.30;;;;;;20642689;28;20046;-77
2022/01/17 03:43:27;;;;;;;7.32;1.15;;;11.30;60.20;;;;;;20641833;28;20046;-77
2022/01/17 03:53:27;;;;;;;5.70;1.10;;;11.30;60.20;;;;;;20656967;28;20117;-76
2022/01/17 04:03:28;;;;;;;9.40;2.45;;;11.30;60.20;;;;;;20625150;28;20049;-78
2022/01/17 04:13:28;;;;;;;3.77;0.93;;;11.30;60.20;;;;;;20640234;28;20092;-77
2022/01/17 04:23:29;;;;;;;5.97;1.25;;;11.30;60.20;;;;;;20655026;28;20329;-78
2022/01/17 04:33:30;;;;;;;7.53;2.13;;;11.30;60.30;;;;;;20638843;28;20105;-78
2022/01/17 04:53:39;;;;;;;6.18;1.35;;;11.20;60.50;;;;;;20654601;28;20038;-79
2022/01/17 05:03:39;;;;;;;4.72;1.38;;;11.20;60.60;;;;;;20636681;28;20038;-78
2022/01/17 05:13:46;;;;;;;4.90;1.42;;;11.30;60.80;;;;;;20634642;28;20160;-77
2022/01/17 05:23:46;;;;;;;3.13;1.17;;;12.00;59.50;;;;;;20635403;28;20030;-76
2022/01/17 05:33:47;;;;;;;6.20;1.20;;;13.00;57.20;;;;;;20619257;28;20035;-78
2022/01/17 05:43:47;;;;;;;5.97;1.40;;;13.90;54.90;;;;;;20633785;28;20308;-75
2022/01/17 05:53:48;;;;;;;3.13;0.95;;;14.70;52.70;;;;;;20646362;28;20321;-72
2022/01/17 06:03:49;;;;;;;7.57;1.35;;;15.10;51.40;;;;;;20654644;28;20050;-82
2022/01/17 06:13:49;;;;;;;5.15;1.90;;;15.20;50.70;;;;;;20714877;28;20080;-78
2022/01/17 06:23:52;;;;;;;5.50;1.08;;;15.20;50.40;;;;;;20686621;28;20122;-80
2022/01/17 06:33:53;;;;;;;5.57;1.38;;;14.80;50.80;;;;;;20640458;28;20039;-83
2022/01/17 06:43:53;;;;;;;5.38;2.25;;;14.00;52.20;;;;;;20672490;28;20097;-83
2022/01/17 06:53:55;;;;;;;2.45;1.00;;;13.30;53.70;;;;;;20682306;28;20064;-81
2022/01/17 07:03:55;;;;;;;4.53;0.60;;;12.70;55.10;;;;;;20733947;28;20410;-81
2022/01/17 07:13:57;;;;;;;6.80;0.82;;;12.30;56.30;;;;;;20662018;28;20073;-83
2022/01/17 07:23:57;;;;;;;4.80;1.17;;;12.00;57.30;;;;;;20659675;28;20038;-81
2022/01/17 07:33:58;;;;;;;4.13;1.10;;;11.80;58.10;;;;;;20660856;28;20046;-81
2022/01/17 07:44:04;;;;;;;4.40;1.35;;;11.70;58.80;;;;;;20626826;28;20382;-81
2022/01/17 07:54:04;;;;;;;5.60;1.10;;;11.60;59.20;;;;;;20644585;28;20039;-82
2022/01/17 08:04:05;;;;;;;5.57;1.38;;;11.60;59.60;;;;;;20663447;28;20453;-81
2022/01/17 08:14:06;;;;;;;7.33;1.20;;;11.60;59.90;;;;;;20722077;28;20041;-82
2022/01/17 08:24:07;;;;;;;4.50;0.80;;;11.60;60.20;;;;;;20705460;28;20297;-80
2022/01/17 08:34:09;;;;;;;3.60;0.88;;;11.60;60.60;;;;;;20639604;28;20528;-81
2022/01/17 08:44:10;;;;;;;4.60;0.88;;;11.60;60.90;;;;;;20655262;28;20484;-80
2022/01/17 08:54:11;;;;;;;6.05;1.67;;;11.60;61.20;;;;;;20666511;28;20392;-81
2022/01/17 09:04:11;;;;;;;2.60;0.80;;;11.50;61.30;;;;;;20705004;28;20046;-81
2022/01/17 09:14:12;;;;;;;5.75;1.15;;;11.50;61.60;;;;;;20637193;28;20099;-81
2022/01/17 09:24:14;;;;;;;4.00;0.68;;;11.50;61.90;;;;;;20710339;28;20117;-81
2022/01/17 09:34:15;;;;;;;3.35;0.63;;;11.50;62.90;;;;;;20665156;28;20070;-83
2022/01/17 09:44:16;;;;;;;1.23;0.70;;;11.50;62.50;;;;;;20662158;28;20046;-83
2022/01/17 09:54:17;;;;;;;2.60;0.40;;;11.50;62.80;;;;;;20636073;28;20368;-85
2022/01/17 10:04:17;;;;;;;1.75;0.75;;;11.40;63.10;;;;;;20643683;28;20751;-84
2022/01/17 10:14:28;;;;;;;1.63;0.60;;;11.50;63.40;;;;;;20671413;28;20042;-84
2022/01/17 10:44:50;;;;;;;1.02;0.80;;;11.50;64.00;;;;;;20662258;28;20247;-79
2022/01/17 10:54:57;;;;;;;2.83;0.65;;;11.40;64.30;;;;;;20628766;28;20058;-81
2022/01/17 11:05:02;;;;;;;2.58;0.63;;;11.40;64.60;;;;;;20645605;28;20080;-83
2022/01/17 11:15:03;;;;;;;1.40;0.40;;;11.60;64.90;;;;;;20638234;28;20409;-79
2022/01/17 11:25:11;;;;;;;4.82;1.10;;;12.30;63.20;;;;;;20649734;28;20030;-80
2022/01/17 11:35:16;;;;;;;2.75;0.75;;;13.20;60.80;;;;;;20642170;28;20046;-79
2022/01/17 11:45:23;;;;;;;1.48;0.73;;;14.00;58.70;;;;;;21078140;23;20048;-81
2022/01/17 11:55:56;;;;;;;3.50;1.00;;;14.70;56.90;;;;;;20675139;28;20035;-81
2022/01/17 12:06:01;;;;;;;2.58;0.88;;;15.00;55.50;;;;;;20615862;28;20488;-79
2022/01/17 12:16:10;;;;;;;3.03;0.90;;;15.10;55.20;;;;;;20654796;28;20093;-81
2022/01/17 12:26:30;;;;;;;3.15;1.02;;;15.00;54.90;;;;;;20644696;28;20447;-79
2022/01/17 12:36:31;;;;;;;4.35;1.33;;;14.50;55.70;;;;;;20638359;28;20034;-79
2022/01/17 12:46:32;;;;;;;3.72;1.85;;;13.70;57.10;;;;;;20643809;28;20070;-75
2022/01/17 12:56:32;;;;;;;7.60;1.05;;;13.10;58.30;;;;;;20601025;28;20110;-76
2022/01/17 13:06:33;;;;;;;4.80;1.38;;;12.70;59.50;;;;;;20667085;28;20042;-80
2022/01/17 13:16:34;;;;;;;3.13;1.10;;;12.40;60.40;;;;;;20668274;28;20038;-79
2022/01/17 13:26:39;;;;;;;3.95;1.17;;;12.10;61.00;;;;;;20649089;28;20070;-79
2022/01/17 13:36:39;;;;;;;3.20;1.35;;;12.00;61.70;;;;;;20663983;28;20459;-78
2022/01/17 13:47:07;;;;;;;5.15;1.10;;;12.00;61.90;;;;;;20620768;28;20089;-79
2022/01/17 13:57:16;;;;;;;4.95;1.40;;;11.90;62.00;;;;;;20660851;28;20077;-79
2022/01/17 14:07:29;;;;;;;6.50;1.75;;;11.90;62.00;;;;;;20658558;28;20038;-79
2022/01/17 14:17:30;;;;;;;7.40;1.48;;;11.90;62.00;;;;;;20645633;28;20393;-81
2022/01/17 14:27:32;;;;;;;6.65;1.33;;;12.00;61.90;;;;;;20630794;28;20041;-76
2022/01/17 14:37:33;;;;;;;3.92;1.15;;;11.90;61.90;;;;;;20644826;28;20041;-79
2022/01/17 14:47:41;;;;;;;7.90;1.63;;;11.90;62.00;;;;;;20648748;28;20046;-79
2022/01/17 15:08:01;;;;;;;8.32;2.03;;;11.70;62.10;;;;;;20674398;28;20109;-79
2022/01/17 15:18:06;;;;;;;8.23;2.03;;;11.70;62.30;;;;;;20645592;28;20133;-84
2022/01/17 15:28:10;;;;;;;5.88;2.70;;;11.60;62.40;;;;;;20671282;28;20046;-86
2022/01/17 15:38:11;;;;;;;9.90;1.63;;;11.60;62.40;;;;;;20640892;28;20038;-85
2022/01/17 15:48:11;;;;;;;8.07;1.87;;;11.80;62.20;;;;;;20740304;28;20439;-87
2022/01/17 15:58:12;;;;;;;8.50;2.17;;;12.50;60.30;;;;;;20703399;28;20324;-80
2022/01/17 16:08:13;;;;;;;8.55;2.13;;;13.40;58.20;;;;;;20672994;28;20046;-77
2022/01/17 16:18:15;;;;;;;5.57;1.63;;;14.10;56.30;;;;;;20656321;28;20097;-76
2022/01/17 16:28:21;;;;;;;8.13;2.08;;;14.50;55.10;;;;;;20655729;28;20034;-77
2022/01/17 16:38:30;;;;;;;9.27;2.53;;;14.80;54.10;;;;;;20668236;28;20042;-78
2022/01/17 16:48:31;;;;;;;5.68;1.75;;;14.90;53.80;;;;;;20652421;28;20415;-77
2022/01/17 16:58:32;;;;;;;9.83;2.20;;;14.70;53.70;;;;;;20662637;28;20137;-79
2022/01/17 17:08:32;;;;;;;10.35;3.22;;;13.90;54.60;;;;;;20570717;28;20290;-77
2022/01/17 17:18:47;;;;;;;9.45;2.28;;;13.20;56.00;;;;;;20601337;28;20069;-80
2022/01/17 17:28:48;;;;;;;10.90;2.58;;;12.70;57.10;;;;;;20584298;28;20033;-77
2022/01/17 17:38:48;;;;;;;7.43;2.70;;;12.30;58.00;;;;;;20730249;28;20034;-79
2022/01/17 17:48:49;;;;;;;6.60;3.08;;;12.00;58.70;;;;;;20747867;28;20062;-77
2022/01/17 17:58:49;;;;;;;8.18;3.55;;;11.80;59.30;;;;;;20715470;28;20066;-77
2022/01/17 18:08:50;;;;;;;5.32;2.13;;;11.60;59.60;;;;;;20633042;28;20030;-79
2022/01/17 18:18:50;;;;;;;9.77;2.85;;;11.70;59.90;;;;;;20648849;28;20034;-79
2022/01/17 18:28:52;;;;;;;5.95;2.38;;;11.60;59.90;;;;;;20615698;28;20077;-78
2022/01/17 18:38:59;;;;;;;11.45;3.65;;;11.80;59.90;;;;;;20616765;28;20035;-77
2022/01/17 18:49:03;;;;;;;6.32;2.08;;;11.70;59.80;;;;;;20598252;28;20039;-78
2022/01/17 18:59:05;;;;;;;8.60;3.05;;;11.70;59.70;;;;;;20631360;28;20459;-80
2022/01/17 19:09:11;;;;;;;10.38;2.50;;;11.80;59.50;;;;;;20676142;28;20062;-78
2022/01/17 19:19:19;;;;;;;9.25;2.40;;;11.80;59.40;;;;;;20677365;28;20113;-79
2022/01/17 19:29:20;;;;;;;12.18;3.25;;;11.90;59.40;;;;;;20677687;28;20070;-77
2022/01/17 19:39:20;;;;;;;11.05;3.17;;;11.80;59.20;;;;;;20642640;28;20038;-79
2022/01/17 19:49:24;;;;;;;10.23;2.53;;;11.80;59.20;;;;;;20676319;28;20489;-78
2022/01/17 19:59:27;;;;;;;10.20;3.63;;;11.80;59.10;;;;;;20657288;28;20041;-79
2022/01/17 20:09:27;;;;;;;8.65;2.67;;;11.80;59.00;;;;;;20631335;28;20137;-76
2022/01/17 20:19:29;;;;;;;10.02;2.25;;;11.80;58.90;;;;;;20591710;28;20157;-75
2022/01/17 20:29:29;;;;;;;8.57;2.65;;;11.80;58.80;;;;;;20624123;28;20477;-75
2022/01/17 20:39:30;;;;;;;6.53;2.55;;;11.80;58.70;;;;;;20617696;28;20046;-79
2022/01/17 20:49:31;;;;;;;12.15;2.50;;;11.70;58.60;;;;;;20631131;28;20178;-80
2022/01/17 20:59:31;;;;;;;6.88;3.03;;;11.70;58.50;;;;;;20572199;28;20042;-77
2022/01/17 21:09:32;;;;;;;9.57;2.40;;;11.70;59.20;;;;;;20534984;28;20057;-75
2022/01/17 21:19:36;;;;;;;9.82;2.40;;;11.70;58.50;;;;;;20565640;28;20108;-76
2022/01/17 21:29:38;;;;;;;6.13;2.35;;;11.70;58.40;;;;;;20582181;28;20058;-74
2022/01/17 21:39:39;;;;;;;5.95;2.17;;;11.70;58.50;;;;;;20559687;28;20041;-74
2022/01/17 21:49:40;;;;;;;3.97;1.70;;;11.70;58.50;;;;;;20546288;28;20122;-73
2022/01/17 21:59:41;;;;;;;9.25;2.17;;;11.70;58.50;;;;;;20548481;28;20037;-74
2022/01/17 22:09:42;;;;;;;5.10;1.88;;;11.70;58.50;;;;;;20548376;28;20438;-73
2022/01/17 22:19:42;;;;;;;5.90;1.27;;;11.70;58.50;;;;;;20547979;28;20115;-73
2022/01/17 22:29:43;;;;;;;5.60;2.30;;;11.70;58.50;;;;;;20531995;28;20027;-73
2022/01/17 22:39:43;;;;;;;9.43;2.97;;;11.60;58.50;;;;;;20531451;28;20035;-73
2022/01/17 22:49:47;;;;;;;6.50;1.80;;;11.60;58.40;;;;;;20531063;28;20034;-74
2022/01/17 22:59:48;;;;;;;6.43;2.25;;;11.60;58.50;;;;;;20530949;28;20438;-73
2022/01/17 23:09:48;;;;;;;8.73;1.88;;;11.70;58.50;;;;;;20551786;28;20030;-73
2022/01/17 23:19:51;;;;;;;6.70;1.48;;;11.60;58.50;;;;;;20543840;28;20134;-73
2022/01/17 23:29:59;;;;;;;7.68;2.05;;;11.60;58.50;;;;;;20543822;28;20045;-74
2022/01/17 23:40:00;;;;;;;8.55;2.13;;;11.60;58.50;;;;;;20559184;28;20393;-73
2022/01/17 23:50:00;;;;;;;9.90;2.25;;;11.60;58.60;;;;;;20542265;28;20039;-74
